Terminal Aerodrome Forecast
Issued by NWS La Crosse, WI

Home | Current Version | Previous Version | Text Only | Print | Product List | Glossary On
Versions: 1 2 3 4 5 6 7 8 9 10 11 12 13 14 15 16 17
000
FTUS43 KARX 031120
TAFRST
TAF
KRST 031120Z 0312/0412 25010KT P6SM SKC
     FM031700 27017G28KT P6SM SCT060
     FM032300 30014G24KT 6SM -SHRA BKN050
     FM040100 34010KT P6SM SCT080=

USA.gov is the U.S. government's official web portal to all federal, state and local government web resources and services.